KVBG/VBG METAR and TAF weather

Enter ICAO airport designator
Station Type Date Time Source
KVBG METAR 2020/12/06 01:58 UTC NOAA

KVBG 060158Z AUTO 00000KT 8SM CLR 10/09 A3026 RMK AO2 SLP252 T00960085


Station Type Date Time Source
KVBG Decoded METAR 2020/12/06 01:58 UTC NOAA

Lompoc, Vandenberg Air Force Base, CA, United States (KVBG) 34-43-46N 120-34-36W 121M
Dec 05, 2020 - 08:58 PM EST / 2020.12.06 0158 UTC
Wind: Calm:0
Visibility: 8 mile(s):0
Sky conditions: clear
Temperature: 49.3 F (9.6 C)
Dew Point: 47.3 F (8.5 C)
Relative Humidity: 92%
Pressure (altimeter): 30.26 in. Hg (1024 hPa)
ob: KVBG 060158Z AUTO 00000KT 8SM CLR 10/09 A3026 RMK AO2 SLP252 T00960085
cycle: 2

Station Type Date Time Source
KVBG TAF 2020/12/04 23:09 UTC NOAA

TAF TAF KVBG 042300Z 0423/0605 33009KT 9999 SCT250 QNH3015INS
BECMG 0501/0502 VRB06KT 9999 SCT250 QNH3016INS
BECMG 0518/0519 32009KT 9999 SCT250 QNH3022INS
BECMG 0601/0602 VRB06KT 9999 FEW003 SCT250 QNH3019INS TX19/0522Z TN03/0515Z LAST NO
AMDS AFT 0501 NEXT 0715

Example: see airport list